Oruro, Bolivia
Current Conditions -  °F | °C
As of 3:00 PM on Saturday 25 Oct 2014 (Local Time) from SLCB Reporting Station
Scattered Clouds Scattered Clouds  
Wind Chill: 79°   Ceiling: Unl
Heat Index: 79°   Visibility: 6mi
Dew Point: 39°   Wind: 3mph
Humidity: 24%   Direction: 10°N
Pressure: 30.21"   Gusts: NA
Location:  17.98°S, 67.12°W
Report Text: SLCB 251900Z 01003KT 9999 SCT027 26/04 Q1023
Loading
Personal Weather Stations






























Interactive Weather Map
Tropical Storm Tracking
New forecast layout! Learn more

10-Day Weather Forecast

Advertisements
Track Severe Weather on mobile